KAC24T OBBI-OKKK
Flight info
| Callsign | KAC24T |
|---|---|
| Flight time | 0h 43m |
| Altitude | 24000 |
| Route | BHR A453 DEBTI |
| Aircraft | A320/M-SDE3FGHIRWY/LB1 |
Departure
| Time | 2026-05-06 20:12 |
|---|---|
| Airport | Bahrain International Airport (OBBI) |
Arrival
| Time | 2026-05-06 20:55 |
|---|---|
| Airport | Kuwait International Airport (OKKK) |
| Time | Latitude | Longitude | Altitude | Speed | Heading |
|---|---|---|---|---|---|
| 2026-05-06 19:33 | 26.26453 | 50.63688 | 24 ft | 0 kts | 212° |
| 2026-05-06 19:47 | 26.26458 | 50.63692 | 21 ft | 4 kts | 212° |
| 2026-05-06 19:47 | 26.26482 | 50.63707 | 23 ft | 4 kts | 206° |
| 2026-05-06 19:47 | 26.26507 | 50.63719 | 24 ft | 4 kts | 198° |
| 2026-05-06 19:48 | 26.26533 | 50.63725 | 22 ft | 4 kts | 177° |
| 2026-05-06 19:48 | 26.26554 | 50.63718 | 22 ft | 2 kts | 124° |
| 2026-05-06 19:48 | 26.26555 | 50.63716 | 25 ft | 0 kts | 123° |
| 2026-05-06 19:55 | 26.26560 | 50.63730 | 21 ft | 7 kts | 53° |
| 2026-05-06 19:55 | 26.26601 | 50.63771 | 23 ft | 13 kts | 41° |
| 2026-05-06 19:55 | 26.26590 | 50.63861 | 23 ft | 7 kts | 123° |
| 2026-05-06 19:56 | 26.26567 | 50.63899 | 22 ft | 5 kts | 123° |
| 2026-05-06 19:56 | 26.26552 | 50.63925 | 22 ft | 4 kts | 123° |
| 2026-05-06 19:56 | 26.26541 | 50.63944 | 22 ft | 3 kts | 123° |
| 2026-05-06 19:56 | 26.26532 | 50.63959 | 22 ft | 2 kts | 123° |
| 2026-05-06 19:57 | 26.26521 | 50.63977 | 21 ft | 3 kts | 123° |
| 2026-05-06 19:57 | 26.26512 | 50.63993 | 21 ft | 3 kts | 123° |
| 2026-05-06 19:57 | 26.26502 | 50.64010 | 22 ft | 3 kts | 123° |
| 2026-05-06 19:57 | 26.26491 | 50.64028 | 22 ft | 3 kts | 123° |
| 2026-05-06 19:58 | 26.26480 | 50.64047 | 20 ft | 3 kts | 123° |
| 2026-05-06 19:58 | 26.26466 | 50.64070 | 20 ft | 3 kts | 123° |
| 2026-05-06 19:58 | 26.26454 | 50.64091 | 20 ft | 3 kts | 123° |
| 2026-05-06 19:58 | 26.26442 | 50.64110 | 20 ft | 3 kts | 123° |
| 2026-05-06 19:59 | 26.26429 | 50.64134 | 21 ft | 4 kts | 123° |
| 2026-05-06 19:59 | 26.26416 | 50.64155 | 21 ft | 3 kts | 123° |
| 2026-05-06 19:59 | 26.26408 | 50.64168 | 20 ft | 1 kts | 123° |
| 2026-05-06 19:59 | 26.26404 | 50.64176 | 20 ft | 1 kts | 123° |
| 2026-05-06 20:00 | 26.26400 | 50.64183 | 21 ft | 2 kts | 123° |
| 2026-05-06 20:00 | 26.26396 | 50.64189 | 20 ft | 0 kts | 123° |
| 2026-05-06 20:00 | 26.26395 | 50.64191 | 22 ft | 2 kts | 123° |
| 2026-05-06 20:00 | 26.26377 | 50.64221 | 21 ft | 7 kts | 123° |
| 2026-05-06 20:01 | 26.26339 | 50.64285 | 19 ft | 12 kts | 123° |
| 2026-05-06 20:01 | 26.26298 | 50.64358 | 19 ft | 11 kts | 122° |
| 2026-05-06 20:01 | 26.26260 | 50.64425 | 20 ft | 10 kts | 122° |
| 2026-05-06 20:01 | 26.26228 | 50.64482 | 20 ft | 8 kts | 122° |
| 2026-05-06 20:02 | 26.26204 | 50.64526 | 19 ft | 6 kts | 122° |
| 2026-05-06 20:02 | 26.26186 | 50.64557 | 20 ft | 4 kts | 122° |
| 2026-05-06 20:02 | 26.26173 | 50.64579 | 20 ft | 3 kts | 122° |
| 2026-05-06 20:02 | 26.26164 | 50.64595 | 20 ft | 3 kts | 122° |
| 2026-05-06 20:03 | 26.26156 | 50.64610 | 20 ft | 2 kts | 122° |
| 2026-05-06 20:03 | 26.26150 | 50.64621 | 19 ft | 1 kts | 122° |
| 2026-05-06 20:03 | 26.26146 | 50.64627 | 22 ft | 1 kts | 122° |
| 2026-05-06 20:03 | 26.26144 | 50.64631 | 21 ft | 1 kts | 122° |
| 2026-05-06 20:04 | 26.26140 | 50.64640 | 19 ft | 2 kts | 122° |
| 2026-05-06 20:04 | 26.26134 | 50.64650 | 19 ft | 1 kts | 122° |
| 2026-05-06 20:04 | 26.26129 | 50.64658 | 21 ft | 2 kts | 122° |
| 2026-05-06 20:04 | 26.26120 | 50.64674 | 19 ft | 3 kts | 122° |
| 2026-05-06 20:05 | 26.26110 | 50.64693 | 19 ft | 2 kts | 122° |
| 2026-05-06 20:05 | 26.26102 | 50.64707 | 21 ft | 2 kts | 122° |
| 2026-05-06 20:05 | 26.26098 | 50.64714 | 20 ft | 0 kts | 122° |
| 2026-05-06 20:05 | 26.26096 | 50.64718 | 19 ft | 1 kts | 122° |
| 2026-05-06 20:06 | 26.26093 | 50.64723 | 20 ft | 0 kts | 122° |
| 2026-05-06 20:06 | 26.26092 | 50.64724 | 20 ft | 0 kts | 122° |
| 2026-05-06 20:07 | 26.26089 | 50.64730 | 22 ft | 1 kts | 122° |
| 2026-05-06 20:07 | 26.26088 | 50.64732 | 22 ft | 0 kts | 122° |
| 2026-05-06 20:07 | 26.26087 | 50.64733 | 21 ft | 0 kts | 122° |
| 2026-05-06 20:07 | 26.26084 | 50.64739 | 21 ft | 2 kts | 122° |
| 2026-05-06 20:08 | 26.26076 | 50.64753 | 20 ft | 2 kts | 122° |
| 2026-05-06 20:08 | 26.26070 | 50.64764 | 21 ft | 1 kts | 122° |
| 2026-05-06 20:08 | 26.26069 | 50.64765 | 20 ft | 0 kts | 122° |
| 2026-05-06 20:08 | 26.26068 | 50.64767 | 20 ft | 1 kts | 122° |
| 2026-05-06 20:09 | 26.26062 | 50.64778 | 22 ft | 3 kts | 122° |
| 2026-05-06 20:09 | 26.26042 | 50.64814 | 22 ft | 7 kts | 122° |
| 2026-05-06 20:09 | 26.26011 | 50.64877 | 21 ft | 11 kts | 108° |
| 2026-05-06 20:09 | 26.26029 | 50.64949 | 23 ft | 0 kts | 40° |
| 2026-05-06 20:10 | 26.26038 | 50.64957 | 22 ft | 4 kts | 40° |
| 2026-05-06 20:10 | 26.26077 | 50.64990 | 22 ft | 10 kts | 30° |
| 2026-05-06 20:10 | 26.26141 | 50.64999 | 23 ft | 8 kts | 300° |
| 2026-05-06 20:10 | 26.26158 | 50.64964 | 23 ft | 1 kts | 302° |
| 2026-05-06 20:11 | 26.26162 | 50.64957 | 22 ft | 2 kts | 302° |
| 2026-05-06 20:11 | 26.26177 | 50.64931 | 22 ft | 12 kts | 302° |
| 2026-05-06 20:11 | 26.26365 | 50.64608 | 19 ft | 84 kts | 302° |
| 2026-05-06 20:11 | 26.26785 | 50.63878 | 21 ft | 137 kts | 302° |
| 2026-05-06 20:12 | 26.27357 | 50.62890 | 358 ft | 153 kts | 302° |
| 2026-05-06 20:12 | 26.28018 | 50.61986 | 981 ft | 152 kts | 332° |
| 2026-05-06 20:12 | 26.29052 | 50.61815 | 1572 ft | 157 kts | 4° |
| 2026-05-06 20:12 | 26.30202 | 50.61777 | 1753 ft | 176 kts | 338° |
| 2026-05-06 20:13 | 26.31328 | 50.61060 | 1887 ft | 198 kts | 332° |
| 2026-05-06 20:13 | 26.32681 | 50.60497 | 2051 ft | 220 kts | 342° |
| 2026-05-06 20:13 | 26.34252 | 50.60050 | 2338 ft | 244 kts | 344° |
| 2026-05-06 20:13 | 26.35948 | 50.59616 | 2932 ft | 254 kts | 344° |
| 2026-05-06 20:14 | 26.37721 | 50.59164 | 3601 ft | 262 kts | 344° |
| 2026-05-06 20:14 | 26.39494 | 50.58699 | 4320 ft | 267 kts | 343° |
| 2026-05-06 20:14 | 26.41334 | 50.58199 | 5067 ft | 271 kts | 343° |
| 2026-05-06 20:14 | 26.43178 | 50.57688 | 5795 ft | 275 kts | 343° |
| 2026-05-06 20:15 | 26.45049 | 50.57160 | 6505 ft | 280 kts | 342° |
| 2026-05-06 20:15 | 26.46952 | 50.56618 | 7182 ft | 284 kts | 342° |
| 2026-05-06 20:15 | 26.48884 | 50.56066 | 7879 ft | 289 kts | 343° |
| 2026-05-06 20:15 | 26.50842 | 50.55504 | 8588 ft | 293 kts | 342° |
| 2026-05-06 20:16 | 26.52825 | 50.54936 | 9312 ft | 297 kts | 343° |
| 2026-05-06 20:16 | 26.54839 | 50.54349 | 9988 ft | 301 kts | 341° |
| 2026-05-06 20:16 | 26.56898 | 50.53653 | 10311 ft | 320 kts | 341° |
| 2026-05-06 20:16 | 26.59082 | 50.52835 | 10532 ft | 340 kts | 339° |
| 2026-05-06 20:17 | 26.61355 | 50.51950 | 11031 ft | 350 kts | 339° |
| 2026-05-06 20:17 | 26.63664 | 50.51047 | 11679 ft | 353 kts | 340° |
| 2026-05-06 20:17 | 26.66010 | 50.50140 | 12298 ft | 359 kts | 341° |
| 2026-05-06 20:17 | 26.68379 | 50.49215 | 12998 ft | 361 kts | 338° |
| 2026-05-06 20:18 | 26.70624 | 50.47919 | 13629 ft | 367 kts | 326° |
| 2026-05-06 20:18 | 26.72611 | 50.46108 | 14186 ft | 371 kts | 316° |
| 2026-05-06 20:18 | 26.74492 | 50.44109 | 14730 ft | 376 kts | 315° |
| 2026-05-06 20:18 | 26.76399 | 50.42087 | 15321 ft | 379 kts | 315° |
| 2026-05-06 20:19 | 26.78322 | 50.40049 | 15945 ft | 381 kts | 315° |
| 2026-05-06 20:19 | 26.80251 | 50.38006 | 16573 ft | 383 kts | 314° |
| 2026-05-06 20:19 | 26.82195 | 50.35948 | 17170 ft | 386 kts | 315° |
| 2026-05-06 20:19 | 26.84150 | 50.33881 | 17841 ft | 387 kts | 315° |
| 2026-05-06 20:20 | 26.86111 | 50.31809 | 18439 ft | 388 kts | 314° |
| 2026-05-06 20:20 | 26.88075 | 50.29729 | 18974 ft | 390 kts | 314° |
| 2026-05-06 20:20 | 26.90051 | 50.27633 | 19502 ft | 392 kts | 314° |
| 2026-05-06 20:20 | 26.92038 | 50.25525 | 20067 ft | 393 kts | 314° |
| 2026-05-06 20:21 | 26.94025 | 50.23414 | 20617 ft | 394 kts | 314° |
| 2026-05-06 20:21 | 26.96016 | 50.21295 | 21129 ft | 396 kts | 313° |
| 2026-05-06 20:21 | 26.98022 | 50.19159 | 21626 ft | 398 kts | 313° |
| 2026-05-06 20:21 | 27.00041 | 50.17010 | 22064 ft | 402 kts | 313° |
| 2026-05-06 20:22 | 27.02079 | 50.14841 | 22530 ft | 405 kts | 313° |
| 2026-05-06 20:22 | 27.04126 | 50.12661 | 22995 ft | 408 kts | 312° |
| 2026-05-06 20:22 | 27.06037 | 50.10313 | 23462 ft | 408 kts | 307° |
| 2026-05-06 20:22 | 27.07883 | 50.07888 | 23856 ft | 409 kts | 307° |
| 2026-05-06 20:23 | 27.09734 | 50.05452 | 24283 ft | 411 kts | 306° |
| 2026-05-06 20:23 | 27.11586 | 50.03013 | 24689 ft | 412 kts | 306° |
| 2026-05-06 20:23 | 27.13448 | 50.00558 | 25094 ft | 413 kts | 306° |
| 2026-05-06 20:23 | 27.15317 | 49.98097 | 25487 ft | 415 kts | 306° |
| 2026-05-06 20:24 | 27.17219 | 49.95594 | 25783 ft | 417 kts | 306° |
| 2026-05-06 20:24 | 27.19102 | 49.93118 | 25864 ft | 412 kts | 306° |
| 2026-05-06 20:24 | 27.20934 | 49.90718 | 25882 ft | 400 kts | 306° |
| 2026-05-06 20:24 | 27.22732 | 49.88360 | 25881 ft | 396 kts | 306° |
| 2026-05-06 20:25 | 27.24516 | 49.86013 | 25881 ft | 394 kts | 306° |
| 2026-05-06 20:25 | 27.26293 | 49.83666 | 25883 ft | 394 kts | 306° |
| 2026-05-06 20:25 | 27.28069 | 49.81316 | 25891 ft | 394 kts | 306° |
| 2026-05-06 20:25 | 27.29845 | 49.78970 | 25890 ft | 394 kts | 306° |
| 2026-05-06 20:26 | 27.31619 | 49.76624 | 25888 ft | 394 kts | 306° |
| 2026-05-06 20:26 | 27.33388 | 49.74281 | 25888 ft | 394 kts | 306° |
| 2026-05-06 20:26 | 27.35163 | 49.71924 | 25891 ft | 396 kts | 306° |
| 2026-05-06 20:26 | 27.36945 | 49.69556 | 25882 ft | 397 kts | 306° |
| 2026-05-06 20:27 | 27.38732 | 49.67187 | 25878 ft | 397 kts | 306° |
| 2026-05-06 20:27 | 27.40521 | 49.64819 | 25905 ft | 397 kts | 306° |
| 2026-05-06 20:27 | 27.42308 | 49.62452 | 25908 ft | 396 kts | 305° |
| 2026-05-06 20:27 | 27.44090 | 49.60088 | 25904 ft | 396 kts | 305° |
| 2026-05-06 20:28 | 27.45869 | 49.57726 | 25899 ft | 395 kts | 305° |
| 2026-05-06 20:28 | 27.47660 | 49.55378 | 25903 ft | 396 kts | 308° |
| 2026-05-06 20:28 | 27.49711 | 49.53280 | 25901 ft | 401 kts | 316° |
| 2026-05-06 20:28 | 27.51897 | 49.51328 | 25897 ft | 401 kts | 316° |
| 2026-05-06 20:29 | 27.54091 | 49.49368 | 25900 ft | 408 kts | 316° |
| 2026-05-06 20:29 | 27.56352 | 49.47340 | 25911 ft | 422 kts | 316° |
| 2026-05-06 20:29 | 27.58682 | 49.45243 | 25901 ft | 435 kts | 316° |
| 2026-05-06 20:29 | 27.61073 | 49.43087 | 25904 ft | 446 kts | 316° |
| 2026-05-06 20:30 | 27.63529 | 49.40876 | 25904 ft | 457 kts | 316° |
| 2026-05-06 20:30 | 27.68607 | 49.36320 | 25907 ft | 475 kts | 316° |
| 2026-05-06 20:30 | 27.71208 | 49.33994 | 25904 ft | 478 kts | 316° |
| 2026-05-06 20:31 | 27.72939 | 49.32446 | 25903 ft | 479 kts | 316° |
| 2026-05-06 20:31 | 27.75547 | 49.30105 | 25913 ft | 478 kts | 316° |
| 2026-05-06 20:31 | 27.79019 | 49.26983 | 25906 ft | 476 kts | 316° |
| 2026-05-06 20:31 | 27.80772 | 49.25407 | 25907 ft | 476 kts | 316° |
| 2026-05-06 20:32 | 27.84201 | 49.22320 | 25907 ft | 476 kts | 315° |
| 2026-05-06 20:32 | 27.85952 | 49.20740 | 25902 ft | 476 kts | 316° |
| 2026-05-06 20:32 | 27.88667 | 49.18568 | 25907 ft | 482 kts | 323° |
| 2026-05-06 20:32 | 27.91569 | 49.16652 | 25918 ft | 483 kts | 324° |
| 2026-05-06 20:33 | 27.94477 | 49.14748 | 25914 ft | 483 kts | 324° |
| 2026-05-06 20:33 | 27.97388 | 49.12846 | 25914 ft | 483 kts | 324° |
| 2026-05-06 20:33 | 28.00298 | 49.10944 | 25911 ft | 483 kts | 324° |
| 2026-05-06 20:33 | 28.03208 | 49.09038 | 25908 ft | 483 kts | 324° |
| 2026-05-06 20:34 | 28.06113 | 49.07128 | 25915 ft | 483 kts | 324° |
| 2026-05-06 20:34 | 28.09014 | 49.05220 | 25911 ft | 483 kts | 324° |
| 2026-05-06 20:34 | 28.11927 | 49.03302 | 25914 ft | 484 kts | 324° |
| 2026-05-06 20:34 | 28.14837 | 49.01387 | 25897 ft | 484 kts | 324° |
| 2026-05-06 20:35 | 28.17746 | 48.99471 | 25546 ft | 480 kts | 324° |
| 2026-05-06 20:35 | 28.20553 | 48.97636 | 25305 ft | 449 kts | 324° |
| 2026-05-06 20:35 | 28.23166 | 48.95938 | 25160 ft | 419 kts | 323° |
| 2026-05-06 20:35 | 28.25637 | 48.94325 | 24658 ft | 402 kts | 323° |
| 2026-05-06 20:36 | 28.28026 | 48.92747 | 23976 ft | 393 kts | 323° |
| 2026-05-06 20:36 | 28.30364 | 48.91187 | 23173 ft | 387 kts | 323° |
| 2026-05-06 20:36 | 28.32659 | 48.89652 | 22514 ft | 377 kts | 323° |
| 2026-05-06 20:36 | 28.34875 | 48.88177 | 22051 ft | 362 kts | 323° |
| 2026-05-06 20:37 | 28.37016 | 48.86759 | 21585 ft | 350 kts | 323° |
| 2026-05-06 20:37 | 28.39085 | 48.85391 | 21145 ft | 338 kts | 323° |
| 2026-05-06 20:37 | 28.41093 | 48.84060 | 20724 ft | 337 kts | 323° |
| 2026-05-06 20:37 | 28.43138 | 48.82695 | 20336 ft | 343 kts | 324° |
| 2026-05-06 20:38 | 28.45203 | 48.81318 | 19962 ft | 343 kts | 324° |
| 2026-05-06 20:38 | 28.47259 | 48.79954 | 19588 ft | 342 kts | 324° |
| 2026-05-06 20:38 | 28.49314 | 48.78592 | 19214 ft | 341 kts | 324° |
| 2026-05-06 20:38 | 28.51355 | 48.77239 | 18846 ft | 339 kts | 324° |
| 2026-05-06 20:39 | 28.53389 | 48.75887 | 18465 ft | 338 kts | 324° |
| 2026-05-06 20:39 | 28.55441 | 48.74519 | 18058 ft | 337 kts | 324° |
| 2026-05-06 20:39 | 28.57357 | 48.73021 | 17617 ft | 331 kts | 313° |
| 2026-05-06 20:39 | 28.58874 | 48.71095 | 17187 ft | 325 kts | 302° |
| 2026-05-06 20:40 | 28.60231 | 48.69042 | 16757 ft | 324 kts | 302° |
| 2026-05-06 20:40 | 28.61573 | 48.67019 | 16339 ft | 324 kts | 303° |
| 2026-05-06 20:40 | 28.62947 | 48.64955 | 15911 ft | 319 kts | 303° |
| 2026-05-06 20:40 | 28.64252 | 48.63003 | 15501 ft | 309 kts | 303° |
| 2026-05-06 20:41 | 28.65541 | 48.61077 | 15102 ft | 303 kts | 303° |
| 2026-05-06 20:41 | 28.66809 | 48.59176 | 14701 ft | 300 kts | 303° |
| 2026-05-06 20:41 | 28.68068 | 48.57279 | 14308 ft | 301 kts | 303° |
| 2026-05-06 20:41 | 28.69349 | 48.55342 | 13908 ft | 303 kts | 303° |
| 2026-05-06 20:42 | 28.70620 | 48.53422 | 13505 ft | 304 kts | 303° |
| 2026-05-06 20:42 | 28.71896 | 48.51492 | 13073 ft | 305 kts | 303° |
| 2026-05-06 20:42 | 28.73177 | 48.49560 | 12656 ft | 306 kts | 303° |
| 2026-05-06 20:42 | 28.74448 | 48.47621 | 12214 ft | 302 kts | 302° |
| 2026-05-06 20:43 | 28.75660 | 48.45717 | 11803 ft | 292 kts | 302° |
| 2026-05-06 20:43 | 28.76820 | 48.43866 | 11400 ft | 282 kts | 302° |
| 2026-05-06 20:43 | 28.77941 | 48.42068 | 10997 ft | 274 kts | 302° |
| 2026-05-06 20:43 | 28.79034 | 48.40312 | 10597 ft | 269 kts | 302° |
| 2026-05-06 20:44 | 28.80117 | 48.38574 | 10203 ft | 267 kts | 302° |
| 2026-05-06 20:44 | 28.81187 | 48.36862 | 9792 ft | 263 kts | 302° |
| 2026-05-06 20:44 | 28.82237 | 48.35185 | 9365 ft | 256 kts | 302° |
| 2026-05-06 20:44 | 28.83257 | 48.33559 | 8946 ft | 249 kts | 302° |
| 2026-05-06 20:45 | 28.84257 | 48.31966 | 8530 ft | 243 kts | 302° |
| 2026-05-06 20:45 | 28.85229 | 48.30416 | 8120 ft | 237 kts | 302° |
| 2026-05-06 20:45 | 28.86182 | 48.28895 | 7721 ft | 234 kts | 301° |
| 2026-05-06 20:45 | 28.87124 | 48.27389 | 7342 ft | 234 kts | 301° |
| 2026-05-06 20:46 | 28.88076 | 48.25864 | 6969 ft | 237 kts | 301° |
| 2026-05-06 20:46 | 28.89027 | 48.24347 | 6605 ft | 233 kts | 301° |
| 2026-05-06 20:46 | 28.89960 | 48.22857 | 6214 ft | 229 kts | 301° |
| 2026-05-06 20:46 | 28.90875 | 48.21392 | 5837 ft | 225 kts | 302° |
| 2026-05-06 20:47 | 28.91789 | 48.19931 | 5442 ft | 222 kts | 302° |
| 2026-05-06 20:47 | 28.92680 | 48.18503 | 5064 ft | 220 kts | 303° |
| 2026-05-06 20:47 | 28.93561 | 48.17088 | 4687 ft | 218 kts | 303° |
| 2026-05-06 20:47 | 28.94436 | 48.15684 | 4298 ft | 216 kts | 304° |
| 2026-05-06 20:48 | 28.95301 | 48.14292 | 3915 ft | 215 kts | 305° |
| 2026-05-06 20:48 | 28.96164 | 48.12909 | 3557 ft | 212 kts | 308° |
| 2026-05-06 20:48 | 28.97122 | 48.11662 | 3296 ft | 207 kts | 322° |
| 2026-05-06 20:48 | 28.98327 | 48.10772 | 3069 ft | 205 kts | 333° |
| 2026-05-06 20:49 | 28.99579 | 48.10001 | 3002 ft | 204 kts | 333° |
| 2026-05-06 20:49 | 29.00825 | 48.09224 | 3003 ft | 204 kts | 333° |
| 2026-05-06 20:49 | 29.02071 | 48.08445 | 3008 ft | 204 kts | 333° |
| 2026-05-06 20:49 | 29.03314 | 48.07667 | 3007 ft | 204 kts | 333° |
| 2026-05-06 20:50 | 29.04561 | 48.06887 | 3011 ft | 204 kts | 333° |
| 2026-05-06 20:50 | 29.05776 | 48.06062 | 3014 ft | 198 kts | 329° |
| 2026-05-06 20:50 | 29.06904 | 48.05314 | 3015 ft | 180 kts | 334° |
| 2026-05-06 20:50 | 29.07999 | 48.04690 | 2894 ft | 172 kts | 335° |
| 2026-05-06 20:51 | 29.09076 | 48.04106 | 2711 ft | 171 kts | 337° |
| 2026-05-06 20:51 | 29.10135 | 48.03540 | 2508 ft | 163 kts | 337° |
| 2026-05-06 20:51 | 29.11137 | 48.03008 | 2310 ft | 156 kts | 338° |
| 2026-05-06 20:51 | 29.12108 | 48.02493 | 2117 ft | 151 kts | 338° |
| 2026-05-06 20:52 | 29.13021 | 48.02008 | 1936 ft | 140 kts | 338° |
| 2026-05-06 20:52 | 29.13881 | 48.01552 | 1758 ft | 133 kts | 338° |
| 2026-05-06 20:52 | 29.14713 | 48.01111 | 1589 ft | 131 kts | 339° |
| 2026-05-06 20:52 | 29.15544 | 48.00670 | 1408 ft | 134 kts | 338° |
| 2026-05-06 20:53 | 29.16405 | 48.00214 | 1242 ft | 138 kts | 337° |
| 2026-05-06 20:53 | 29.17273 | 47.99754 | 1070 ft | 137 kts | 337° |
| 2026-05-06 20:53 | 29.18143 | 47.99292 | 896 ft | 138 kts | 338° |
| 2026-05-06 20:53 | 29.19002 | 47.98830 | 699 ft | 135 kts | 338° |
| 2026-05-06 20:54 | 29.19842 | 47.98379 | 538 ft | 135 kts | 338° |
| 2026-05-06 20:54 | 29.20718 | 47.97921 | 354 ft | 142 kts | 338° |
| 2026-05-06 20:54 | 29.21603 | 47.97454 | 175 ft | 137 kts | 338° |
| 2026-05-06 20:54 | 29.22330 | 47.97070 | 165 ft | 89 kts | 334° |
| 2026-05-06 20:55 | 29.22747 | 47.96852 | 162 ft | 50 kts | 335° |
| 2026-05-06 20:55 | 29.23033 | 47.96699 | 163 ft | 35 kts | 335° |
| 2026-05-06 20:55 | 29.23101 | 47.96733 | 163 ft | 11 kts | 73° |
| 2026-05-06 20:55 | 29.23130 | 47.96812 | 165 ft | 11 kts | 66° |
| 2026-05-06 20:56 | 29.23169 | 47.96862 | 165 ft | 7 kts | 15° |
| 2026-05-06 20:56 | 29.23209 | 47.96849 | 164 ft | 3 kts | 332° |
| 2026-05-06 20:56 | 29.23237 | 47.96833 | 164 ft | 6 kts | 334° |
| 2026-05-06 20:56 | 29.23283 | 47.96808 | 164 ft | 8 kts | 335° |
| 2026-05-06 20:57 | 29.23341 | 47.96779 | 164 ft | 10 kts | 336° |
| 2026-05-06 20:57 | 29.23410 | 47.96743 | 163 ft | 12 kts | 336° |
| 2026-05-06 20:57 | 29.23494 | 47.96700 | 163 ft | 14 kts | 336° |
| 2026-05-06 20:57 | 29.23573 | 47.96658 | 163 ft | 12 kts | 334° |
| 2026-05-06 20:58 | 29.23652 | 47.96615 | 164 ft | 13 kts | 335° |
| 2026-05-06 20:58 | 29.23735 | 47.96571 | 164 ft | 14 kts | 335° |
| 2026-05-06 20:58 | 29.23827 | 47.96522 | 164 ft | 15 kts | 335° |
| 2026-05-06 20:58 | 29.23926 | 47.96470 | 164 ft | 16 kts | 335° |
| 2026-05-06 20:59 | 29.24031 | 47.96416 | 164 ft | 17 kts | 334° |
| 2026-05-06 20:59 | 29.24136 | 47.96350 | 163 ft | 17 kts | 336° |
| 2026-05-06 20:59 | 29.24240 | 47.96302 | 164 ft | 10 kts | 337° |
| 2026-05-06 20:59 | 29.24310 | 47.96269 | 164 ft | 12 kts | 337° |
| 2026-05-06 21:00 | 29.24384 | 47.96224 | 164 ft | 13 kts | 333° |
| 2026-05-06 21:00 | 29.24468 | 47.96177 | 164 ft | 14 kts | 336° |
| 2026-05-06 21:00 | 29.24561 | 47.96130 | 165 ft | 15 kts | 336° |
| 2026-05-06 21:00 | 29.24659 | 47.96081 | 165 ft | 16 kts | 336° |
| 2026-05-06 21:01 | 29.24762 | 47.96028 | 165 ft | 17 kts | 335° |
| 2026-05-06 21:01 | 29.24841 | 47.95982 | 165 ft | 7 kts | 333° |
| 2026-05-06 21:01 | 29.24892 | 47.95954 | 165 ft | 9 kts | 334° |
| 2026-05-06 21:01 | 29.24954 | 47.95920 | 165 ft | 11 kts | 334° |
| 2026-05-06 21:02 | 29.25025 | 47.95911 | 165 ft | 10 kts | 34° |
| 2026-05-06 21:02 | 29.25063 | 47.95955 | 167 ft | 7 kts | 4° |
| 2026-05-06 21:02 | 29.25107 | 47.95934 | 167 ft | 8 kts | 334° |
| 2026-05-06 21:02 | 29.25143 | 47.95914 | 167 ft | 8 kts | 335° |
| 2026-05-06 21:03 | 29.25176 | 47.95922 | 167 ft | 4 kts | 65° |
| 2026-05-06 21:03 | 29.25177 | 47.95925 | 167 ft | 0 kts | 68° |
| 2026-05-06 21:03 | 29.25179 | 47.95932 | 167 ft | 2 kts | 68° |
| 2026-05-06 21:03 | 29.25181 | 47.95937 | 167 ft | 1 kts | 67° |
| 2026-05-06 21:04 | 29.25188 | 47.95955 | 167 ft | 1 kts | 66° |
| 2026-05-06 21:04 | 29.25189 | 47.95957 | 167 ft | 0 kts | 66° |